ベルファスト/国際 の空港の天気 - METARとTAF

ベルファスト国際空港 ( EGAA / BFS ) - イギリス ベルファスト
飛行場実況気象(Metar)
観測時間12/06 21:20 GMT (12/06 21:20 UTC)
風向・風速西南西 7m/s
視程10km以上
天気現象
少しの雲 雲底高度 610m
全天の8割程度の雲 雲底高度 1160m
気温8℃
湿度93%
気圧1005hPa
METAREGAA 062120Z 25014KT 9999 FEW020 BKN038 08/07 Q1005
過去の天気等 Google飛行場航空写真 Wunderground天気予報

過去48時間のMETAR

飛行場予報(TAF)
発表時間: 12/06 17:00 GMT (12/06 17:00 UTC)
予報対象時間: 6日18時 GMT ~ 7日18時 GMT
風向・風速西 6m/s
視程10km以上
少しの雲 雲底高度 460m
全天の4割程度の雲 雲底高度 760m
6日18時 GMT ~ 7日4時 GMT に 確率 30% で一時的に
視程8000m
天気現象弱いしゅう雨
全天の8割程度の雲 雲底高度 430m
7日4時 GMT ~ 7日7時 GMT に徐々に
全天の8割程度の雲 雲底高度 370m
7日4時 GMT ~ 7日13時 GMT に一時的に
視程6000m
天気現象弱い雨霧雨
7日7時 GMT ~ 7日10時 GMT に徐々に
風向・風速南南西 6m/s
全天の8割程度の雲 雲底高度 90m
7日10時 GMT ~ 7日14時 GMT に徐々に
風向・風速南南西 8m/s 瞬間風速 13m/s
7日12時 GMT ~ 7日15時 GMT に徐々に
全天の8割程度の雲 雲底高度 370m
7日15時 GMT から 確率 40% で
全天の4割程度の雲 雲底高度 430m
TAF EGAA 061700Z 0618/0718 26012KT 9999 FEW015 SCT025
PROB30 TEMPO 0618/0704 8000 -SHRA BKN014
BECMG 0704/0707 BKN012
TEMPO 0704/0713 6000 -RADZ
BECMG 0707/0710 20012KT BKN003
BECMG 0710/0714 21015G25KT
BECMG 0712/0715 BKN012
PROB40 0715/0718 SCT014